sensor_id;sensor_type;location;lat;lon;timestamp;pressure;altitude;pressure_sealevel;temperature;humidity
14204;BME280;7185;51.854;6.622;2023-04-09T00:01:25;102337.22;;;12.22;84.90
14204;BME280;7185;51.854;6.622;2023-04-09T00:03:56;102345.06;;;12.17;85.61
14204;BME280;7185;51.854;6.622;2023-04-09T00:06:28;102338.06;;;12.21;85.33
14204;BME280;7185;51.854;6.622;2023-04-09T00:09:01;102338.91;;;12.17;85.15
14204;BME280;7185;51.854;6.622;2023-04-09T00:11:33;102340.72;;;12.30;84.75
14204;BME280;7185;51.854;6.622;2023-04-09T00:14:05;102343.28;;;12.11;85.54
14204;BME280;7185;51.854;6.622;2023-04-09T00:16:37;102335.44;;;12.15;85.64
14204;BME280;7185;51.854;6.622;2023-04-09T00:19:09;102335.38;;;12.05;85.43
14204;BME280;7185;51.854;6.622;2023-04-09T00:21:42;102335.38;;;12.02;85.34
14204;BME280;7185;51.854;6.622;2023-04-09T00:24:15;102333.63;;;12.01;85.15
14204;BME280;7185;51.854;6.622;2023-04-09T00:26:46;102329.22;;;11.99;85.49
14204;BME280;7185;51.854;6.622;2023-04-09T00:29:18;102330.13;;;11.99;85.66
14204;BME280;7185;51.854;6.622;2023-04-09T00:31:50;102331.03;;;12.09;85.50
14204;BME280;7185;51.854;6.622;2023-04-09T00:34:21;102332.75;;;12.02;86.08
14204;BME280;7185;51.854;6.622;2023-04-09T00:36:53;102327.44;;;11.94;85.99
14204;BME280;7185;51.854;6.622;2023-04-09T00:39:26;102316.00;;;11.88;86.05
14204;BME280;7185;51.854;6.622;2023-04-09T00:41:59;102320.41;;;11.87;86.40
14204;BME280;7185;51.854;6.622;2023-04-09T00:44:31;102315.03;;;11.64;86.65
14204;BME280;7185;51.854;6.622;2023-04-09T00:47:03;102313.28;;;11.63;86.66
14204;BME280;7185;51.854;6.622;2023-04-09T00:49:35;102321.13;;;11.60;86.74
14204;BME280;7185;51.854;6.622;2023-04-09T00:52:06;102316.66;;;11.42;87.93
14204;BME280;7185;51.854;6.622;2023-04-09T00:54:39;102317.53;;;11.36;88.08
14204;BME280;7185;51.854;6.622;2023-04-09T00:57:11;102314.84;;;11.28;88.09
14204;BME280;7185;51.854;6.622;2023-04-09T00:59:43;102312.22;;;11.28;87.76
14204;BME280;7185;51.854;6.622;2023-04-09T01:02:14;102308.59;;;11.12;87.88
14204;BME280;7185;51.854;6.622;2023-04-09T01:04:46;102299.84;;;11.07;88.32
14204;BME280;7185;51.854;6.622;2023-04-09T01:07:24;102302.38;;;10.95;89.06
14204;BME280;7185;51.854;6.622;2023-04-09T01:10:07;102301.38;;;10.80;89.42
14204;BME280;7185;51.854;6.622;2023-04-09T01:12:47;102297.13;;;10.96;88.52
14204;BME280;7185;51.854;6.622;2023-04-09T01:15:24;102300.63;;;10.94;88.35
14204;BME280;7185;51.854;6.622;2023-04-09T01:18:09;102303.16;;;10.84;88.85
14204;BME280;7185;51.854;6.622;2023-04-09T01:20:47;102307.53;;;10.87;89.16
14204;BME280;7185;51.854;6.622;2023-04-09T01:23:28;102303.06;;;10.75;89.34
14204;BME280;7185;51.854;6.622;2023-04-09T01:26:09;102306.59;;;10.77;89.87
14204;BME280;7185;51.854;6.622;2023-04-09T01:28:44;102302.16;;;10.72;90.26
14204;BME280;7185;51.854;6.622;2023-04-09T01:31:17;102303.06;;;10.75;90.40
14204;BME280;7185;51.854;6.622;2023-04-09T01:33:50;102301.34;;;10.74;90.32
14204;BME280;7185;51.854;6.622;2023-04-09T01:36:23;102299.66;;;10.86;89.79
14204;BME280;7185;51.854;6.622;2023-04-09T01:38:56;102304.13;;;10.97;89.37
14204;BME280;7185;51.854;6.622;2023-04-09T01:41:30;102310.22;;;10.92;88.97
14204;BME280;7185;51.854;6.622;2023-04-09T01:44:04;102304.97;;;10.92;88.72
14204;BME280;7185;51.854;6.622;2023-04-09T01:46:38;102303.16;;;10.86;88.97
14204;BME280;7185;51.854;6.622;2023-04-09T01:49:10;102303.09;;;10.78;88.64
14204;BME280;7185;51.854;6.622;2023-04-09T01:51:42;102304.06;;;10.88;88.78
14204;BME280;7185;51.854;6.622;2023-04-09T01:54:14;102303.19;;;10.88;89.11
14204;BME280;7185;51.854;6.622;2023-04-09T01:56:47;102305.88;;;10.92;88.58
14204;BME280;7185;51.854;6.622;2023-04-09T01:59:20;102300.63;;;10.94;88.31
14204;BME280;7185;51.854;6.622;2023-04-09T02:01:53;102306.63;;;10.80;87.65
14204;BME280;7185;51.854;6.622;2023-04-09T02:04:32;102301.25;;;10.66;88.33
14204;BME280;7185;51.854;6.622;2023-04-09T02:07:06;102306.59;;;10.76;88.37
14204;BME280;7185;51.854;6.622;2023-04-09T02:09:40;102301.31;;;10.71;88.15
14204;BME280;7185;51.854;6.622;2023-04-09T02:12:16;102304.78;;;10.67;88.27
14204;BME280;7185;51.854;6.622;2023-04-09T02:14:51;102295.91;;;10.56;88.54
14204;BME280;7185;51.854;6.622;2023-04-09T02:17:23;102294.19;;;10.58;88.21
14204;BME280;7185;51.854;6.622;2023-04-09T02:19:55;102295.84;;;10.49;88.15
14204;BME280;7185;51.854;6.622;2023-04-09T02:22:26;102302.69;;;10.35;88.36
14204;BME280;7185;51.854;6.622;2023-04-09T02:24:59;102297.44;;;10.35;88.08
14204;BME280;7185;51.854;6.622;2023-04-09T02:27:30;102297.38;;;10.29;88.24
14204;BME280;7185;51.854;6.622;2023-04-09T02:30:04;102289.41;;;10.16;88.73
14204;BME280;7185;51.854;6.622;2023-04-09T02:32:36;102288.59;;;10.27;88.00
14204;BME280;7185;51.854;6.622;2023-04-09T02:35:08;102294.75;;;10.29;87.90
14204;BME280;7185;51.854;6.622;2023-04-09T02:37:39;102291.13;;;10.16;87.65
14204;BME280;7185;51.854;6.622;2023-04-09T02:40:11;102285.84;;;10.11;88.46
14204;BME280;7185;51.854;6.622;2023-04-09T02:42:43;102284.84;;;10.00;88.21
14204;BME280;7185;51.854;6.622;2023-04-09T02:45:16;102285.63;;;9.89;88.52
14204;BME280;7185;51.854;6.622;2023-04-09T02:47:47;102277.72;;;9.88;88.26
14204;BME280;7185;51.854;6.622;2023-04-09T02:50:19;102277.63;;;9.80;88.36
14204;BME280;7185;51.854;6.622;2023-04-09T02:52:51;102279.31;;;9.75;88.53
14204;BME280;7185;51.854;6.622;2023-04-09T02:55:22;102275.75;;;9.68;88.18
14204;BME280;7185;51.854;6.622;2023-04-09T02:57:54;102274.03;;;9.72;88.45
14204;BME280;7185;51.854;6.622;2023-04-09T03:00:27;102273.13;;;9.68;87.78
14204;BME280;7185;51.854;6.622;2023-04-09T03:02:58;102276.53;;;9.63;88.78
14204;BME280;7185;51.854;6.622;2023-04-09T03:05:30;102275.59;;;9.54;88.49
14204;BME280;7185;51.854;6.622;2023-04-09T03:08:01;102270.22;;;9.48;88.91
14204;BME280;7185;51.854;6.622;2023-04-09T03:10:33;102264.91;;;9.39;89.22
14204;BME280;7185;51.854;6.622;2023-04-09T03:13:04;102271.81;;;9.34;89.33
14204;BME280;7185;51.854;6.622;2023-04-09T03:15:37;102262.31;;;9.42;88.84
14204;BME280;7185;51.854;6.622;2023-04-09T03:18:09;102263.06;;;9.35;88.93
14204;BME280;7185;51.854;6.622;2023-04-09T03:20:40;102264.69;;;9.23;88.99
14204;BME280;7185;51.854;6.622;2023-04-09T03:23:12;102255.31;;;9.41;88.87
14204;BME280;7185;51.854;6.622;2023-04-09T03:25:44;102259.38;;;9.17;88.67
14204;BME280;7185;51.854;6.622;2023-04-09T03:28:15;102250.59;;;9.15;89.23
14204;BME280;7185;51.854;6.622;2023-04-09T03:30:48;102251.44;;;9.13;90.27
14204;BME280;7185;51.854;6.622;2023-04-09T03:33:20;102253.22;;;9.17;89.62
14204;BME280;7185;51.854;6.622;2023-04-09T03:35:51;102248.91;;;9.20;89.20
14204;BME280;7185;51.854;6.622;2023-04-09T03:38:23;102250.53;;;9.09;89.41
14204;BME280;7185;51.854;6.622;2023-04-09T03:40:55;102256.47;;;8.99;90.07
14204;BME280;7185;51.854;6.622;2023-04-09T03:43:26;102251.44;;;9.11;89.21
14204;BME280;7185;51.854;6.622;2023-04-09T03:45:59;102252.22;;;9.07;89.69
14204;BME280;7185;51.854;6.622;2023-04-09T03:48:31;102253.84;;;8.99;89.72
14204;BME280;7185;51.854;6.622;2023-04-09T03:51:03;102246.03;;;9.00;89.69
14204;BME280;7185;51.854;6.622;2023-04-09T03:53:34;102253.91;;;9.02;89.61
14204;BME280;7185;51.854;6.622;2023-04-09T03:56:07;102251.22;;;8.99;89.83
14204;BME280;7185;51.854;6.622;2023-04-09T03:58:39;102250.09;;;8.81;89.59
14204;BME280;7185;51.854;6.622;2023-04-09T04:01:12;102253.53;;;8.77;90.64
14204;BME280;7185;51.854;6.622;2023-04-09T04:03:43;102251.84;;;8.81;90.18
14204;BME280;7185;51.854;6.622;2023-04-09T04:06:15;102251.91;;;8.85;90.51
14204;BME280;7185;51.854;6.622;2023-04-09T04:08:47;102253.72;;;8.89;90.03
14204;BME280;7185;51.854;6.622;2023-04-09T04:11:18;102257.09;;;8.82;89.95
14204;BME280;7185;51.854;6.622;2023-04-09T04:13:50;102257.09;;;8.81;90.10
14204;BME280;7185;51.854;6.622;2023-04-09T04:16:23;102260.41;;;8.72;90.52
14204;BME280;7185;51.854;6.622;2023-04-09T04:18:54;102263.88;;;8.71;89.90
14204;BME280;7185;51.854;6.622;2023-04-09T04:21:26;102264.69;;;8.67;90.07
14204;BME280;7185;51.854;6.622;2023-04-09T04:23:58;102258.72;;;8.74;90.27
14204;BME280;7185;51.854;6.622;2023-04-09T04:26:30;102259.53;;;8.70;90.24
14204;BME280;7185;51.854;6.622;2023-04-09T04:29:01;102254.06;;;8.57;90.56
14204;BME280;7185;51.854;6.622;2023-04-09T04:31:34;102261.88;;;8.54;90.54
14204;BME280;7185;51.854;6.622;2023-04-09T04:34:06;102261.97;;;8.60;90.55
14204;BME280;7185;51.854;6.622;2023-04-09T04:36:37;102262.66;;;8.50;91.03
14204;BME280;7185;51.854;6.622;2023-04-09T04:39:09;102265.16;;;8.44;90.18
14204;BME280;7185;51.854;6.622;2023-04-09T04:41:41;102263.91;;;8.22;91.72
14204;BME280;7185;51.854;6.622;2023-04-09T04:44:12;102264.75;;;8.21;92.25
14204;BME280;7185;51.854;6.622;2023-04-09T04:46:45;102270.06;;;8.25;91.21
14204;BME280;7185;51.854;6.622;2023-04-09T04:49:16;102261.50;;;8.36;91.32
14204;BME280;7185;51.854;6.622;2023-04-09T04:51:48;102264.00;;;8.28;91.55
14204;BME280;7185;51.854;6.622;2023-04-09T04:54:20;102267.53;;;8.30;90.92
14204;BME280;7185;51.854;6.622;2023-04-09T04:56:51;102270.00;;;8.22;91.41
14204;BME280;7185;51.854;6.622;2023-04-09T04:59:23;102265.78;;;8.29;91.40
14204;BME280;7185;51.854;6.622;2023-04-09T05:01:56;102264.06;;;8.31;91.48
14204;BME280;7185;51.854;6.622;2023-04-09T05:04:28;102271.94;;;8.33;91.40
14204;BME280;7185;51.854;6.622;2023-04-09T05:06:59;102271.00;;;8.29;91.73
14204;BME280;7185;51.854;6.622;2023-04-09T05:09:31;102259.81;;;8.38;90.90
14204;BME280;7185;51.854;6.622;2023-04-09T05:12:03;102267.63;;;8.36;91.76
14204;BME280;7185;51.854;6.622;2023-04-09T05:14:34;102265.03;;;8.38;91.58
14204;BME280;7185;51.854;6.622;2023-04-09T05:17:07;102259.91;;;8.44;91.36
14204;BME280;7185;51.854;6.622;2023-04-09T05:19:39;102261.47;;;8.33;90.87
14204;BME280;7185;51.854;6.622;2023-04-09T05:22:10;102274.25;;;8.17;91.00
14204;BME280;7185;51.854;6.622;2023-04-09T05:24:42;102268.50;;;8.37;91.93
14204;BME280;7185;51.854;6.622;2023-04-09T05:27:14;102264.22;;;8.40;91.58
14204;BME280;7185;51.854;6.622;2023-04-09T05:29:45;102268.59;;;8.43;91.28
14204;BME280;7185;51.854;6.622;2023-04-09T05:32:18;102263.44;;;8.46;91.50
14204;BME280;7185;51.854;6.622;2023-04-09T05:34:50;102268.47;;;8.34;90.89
14204;BME280;7185;51.854;6.622;2023-04-09T05:37:21;102266.19;;;8.51;91.36
14204;BME280;7185;51.854;6.622;2023-04-09T05:39:53;102263.59;;;8.52;91.09
14204;BME280;7185;51.854;6.622;2023-04-09T05:42:25;102254.88;;;8.52;91.11
14204;BME280;7185;51.854;6.622;2023-04-09T05:44:56;102261.50;;;8.36;91.14
14204;BME280;7185;51.854;6.622;2023-04-09T05:47:29;102254.88;;;8.53;91.56
14204;BME280;7185;51.854;6.622;2023-04-09T05:50:01;102255.00;;;8.59;91.67
14204;BME280;7185;51.854;6.622;2023-04-09T05:52:33;102260.41;;;8.72;91.44
14204;BME280;7185;51.854;6.622;2023-04-09T05:55:05;102258.69;;;8.72;91.50
14204;BME280;7185;51.854;6.622;2023-04-09T05:57:39;102254.31;;;8.70;91.33
14204;BME280;7185;51.854;6.622;2023-04-09T06:00:12;102257.72;;;8.67;91.23
14204;BME280;7185;51.854;6.622;2023-04-09T06:02:45;102253.56;;;8.80;90.38
14204;BME280;7185;51.854;6.622;2023-04-09T06:05:17;102254.50;;;8.82;90.56
14204;BME280;7185;51.854;6.622;2023-04-09T06:07:48;102249.84;;;8.64;91.95
14204;BME280;7185;51.854;6.622;2023-04-09T06:10:20;102261.31;;;8.74;91.63
14204;BME280;7185;51.854;6.622;2023-04-09T06:12:51;102255.25;;;8.75;91.13
14204;BME280;7185;51.854;6.622;2023-04-09T06:15:23;102257.50;;;8.53;91.93
14204;BME280;7185;51.854;6.622;2023-04-09T06:17:56;102252.13;;;8.99;90.22
14204;BME280;7185;51.854;6.622;2023-04-09T06:20:28;102258.78;;;8.77;91.27
14204;BME280;7185;51.854;6.622;2023-04-09T06:22:59;102265.59;;;8.69;90.67
14204;BME280;7185;51.854;6.622;2023-04-09T06:25:31;102265.88;;;8.84;90.44
14204;BME280;7185;51.854;6.622;2023-04-09T06:28:03;102268.75;;;9.04;90.63
14204;BME280;7185;51.854;6.622;2023-04-09T06:30:34;102271.75;;;9.31;89.19
14204;BME280;7185;51.854;6.622;2023-04-09T06:33:07;102272.81;;;9.44;88.65
14204;BME280;7185;51.854;6.622;2023-04-09T06:35:40;102266.94;;;9.63;88.04
14204;BME280;7185;51.854;6.622;2023-04-09T06:38:12;102266.13;;;9.67;87.60
14204;BME280;7185;51.854;6.622;2023-04-09T06:40:43;102265.34;;;9.76;86.69
14204;BME280;7185;51.854;6.622;2023-04-09T06:43:15;102274.84;;;9.66;87.49
14204;BME280;7185;51.854;6.622;2023-04-09T06:45:47;102281.00;;;9.70;87.70
14204;BME280;7185;51.854;6.622;2023-04-09T06:48:20;102272.47;;;9.86;86.57
14204;BME280;7185;51.854;6.622;2023-04-09T06:50:51;102279.97;;;9.59;85.83
14204;BME280;7185;51.854;6.622;2023-04-09T06:53:23;102276.59;;;9.66;86.59
14204;BME280;7185;51.854;6.622;2023-04-09T06:55:54;102281.94;;;9.77;86.79
14204;BME280;7185;51.854;6.622;2023-04-09T06:58:28;102288.00;;;9.71;87.10
14204;BME280;7185;51.854;6.622;2023-04-09T07:00:59;102285.50;;;9.82;87.07
14204;BME280;7185;51.854;6.622;2023-04-09T07:03:32;102290.38;;;10.28;85.25
14204;BME280;7185;51.854;6.622;2023-04-09T07:06:04;102280.84;;;10.34;85.23
14204;BME280;7185;51.854;6.622;2023-04-09T07:08:35;102281.03;;;10.50;84.05
14204;BME280;7185;51.854;6.622;2023-04-09T07:11:07;102287.41;;;10.81;83.83
14204;BME280;7185;51.854;6.622;2023-04-09T07:13:39;102284.03;;;11.04;82.71
14204;BME280;7185;51.854;6.622;2023-04-09T07:16:10;102292.03;;;11.18;82.90
14204;BME280;7185;51.854;6.622;2023-04-09T07:18:43;102284.03;;;11.04;81.41
14204;BME280;7185;51.854;6.622;2023-04-09T07:21:15;102289.41;;;11.16;80.03
14204;BME280;7185;51.854;6.622;2023-04-09T07:23:47;102284.09;;;11.07;79.97
14204;BME280;7185;51.854;6.622;2023-04-09T07:26:18;102285.09;;;11.26;79.19
14204;BME280;7185;51.854;6.622;2023-04-09T07:28:50;102291.19;;;11.27;78.29
14204;BME280;7185;51.854;6.622;2023-04-09T07:31:22;102293.06;;;11.43;78.66
14204;BME280;7185;51.854;6.622;2023-04-09T07:33:54;102289.69;;;11.75;77.40
14204;BME280;7185;51.854;6.622;2023-04-09T07:36:26;102286.16;;;11.64;77.35
14204;BME280;7185;51.854;6.622;2023-04-09T07:38:58;102295.97;;;12.08;77.27
14204;BME280;7185;51.854;6.622;2023-04-09T07:41:29;102289.88;;;12.31;75.17
14204;BME280;7185;51.854;6.622;2023-04-09T07:44:01;102284.59;;;12.13;73.38
14204;BME280;7185;51.854;6.622;2023-04-09T07:46:33;102294.22;;;12.09;72.37
14204;BME280;7185;51.854;6.622;2023-04-09T07:49:05;102290.75;;;12.27;72.39
14204;BME280;7185;51.854;6.622;2023-04-09T07:51:37;102287.25;;;12.59;72.43
14204;BME280;7185;51.854;6.622;2023-04-09T07:54:09;102283.75;;;12.97;71.32
14204;BME280;7185;51.854;6.622;2023-04-09T07:56:41;102293.34;;;13.35;70.69
14204;BME280;7185;51.854;6.622;2023-04-09T07:59:12;102293.38;;;13.17;69.69
14204;BME280;7185;51.854;6.622;2023-04-09T08:01:44;102287.16;;;13.50;68.26
14204;BME280;7185;51.854;6.622;2023-04-09T08:04:18;102291.50;;;13.68;66.55
14204;BME280;7185;51.854;6.622;2023-04-09T08:06:51;102293.22;;;13.80;67.73
14204;BME280;7185;51.854;6.622;2023-04-09T08:09:23;102285.81;;;14.41;66.21
14204;BME280;7185;51.854;6.622;2023-04-09T08:11:54;102276.19;;;14.31;63.00
14204;BME280;7185;51.854;6.622;2023-04-09T08:14:26;102283.28;;;14.26;65.51
14204;BME280;7185;51.854;6.622;2023-04-09T08:16:59;102281.38;;;14.42;64.24
14204;BME280;7185;51.854;6.622;2023-04-09T08:19:32;102285.94;;;14.21;62.65
14204;BME280;7185;51.854;6.622;2023-04-09T08:22:04;102280.69;;;14.18;62.22
14204;BME280;7185;51.854;6.622;2023-04-09T08:24:35;102276.50;;;15.03;63.07
14204;BME280;7185;51.854;6.622;2023-04-09T08:27:09;102286.75;;;15.34;60.73
14204;BME280;7185;51.854;6.622;2023-04-09T08:29:40;102282.78;;;15.69;58.94
14204;BME280;7185;51.854;6.622;2023-04-09T08:32:12;102287.50;;;16.15;58.85
14204;BME280;7185;51.854;6.622;2023-04-09T08:34:45;102287.94;;;15.81;55.66
14204;BME280;7185;51.854;6.622;2023-04-09T08:37:16;102279.44;;;15.57;56.47
14204;BME280;7185;51.854;6.622;2023-04-09T08:39:48;102277.78;;;16.16;58.26
14204;BME280;7185;51.854;6.622;2023-04-09T08:42:20;102280.34;;;16.23;55.42
14204;BME280;7185;51.854;6.622;2023-04-09T08:44:53;102281.78;;;16.43;55.09
14204;BME280;7185;51.854;6.622;2023-04-09T08:47:25;102295.13;;;15.70;54.65
14204;BME280;7185;51.854;6.622;2023-04-09T08:49:58;102292.97;;;16.03;55.04
14204;BME280;7185;51.854;6.622;2023-04-09T08:52:31;102281.34;;;16.71;55.61
14204;BME280;7185;51.854;6.622;2023-04-09T08:55:04;102275.09;;;16.73;54.06
14204;BME280;7185;51.854;6.622;2023-04-09T08:57:36;102279.47;;;16.21;51.43
14204;BME280;7185;51.854;6.622;2023-04-09T09:00:09;102277.03;;;16.64;50.93
14204;BME280;7185;51.854;6.622;2023-04-09T09:03:02;102272.00;;;16.48;53.54
14204;BME280;7185;51.854;6.622;2023-04-09T09:05:36;102268.13;;;16.69;51.04
14204;BME280;7185;51.854;6.622;2023-04-09T09:08:10;102273.41;;;16.13;51.59
14204;BME280;7185;51.854;6.622;2023-04-09T09:10:43;102264.38;;;16.81;51.61
14204;BME280;7185;51.854;6.622;2023-04-09T09:13:17;102266.91;;;16.36;49.47
14204;BME280;7185;51.854;6.622;2023-04-09T09:15:49;102252.75;;;16.88;49.50
14204;BME280;7185;51.854;6.622;2023-04-09T09:18:37;102258.53;;;17.58;49.83
14204;BME280;7185;51.854;6.622;2023-04-09T09:21:11;102259.19;;;18.08;46.44
14204;BME280;7185;51.854;6.622;2023-04-09T09:23:43;102252.47;;;18.67;46.71
14204;BME280;7185;51.854;6.622;2023-04-09T09:26:19;102248.56;;;19.14;46.82
14204;BME280;7185;51.854;6.622;2023-04-09T09:28:52;102244.13;;;18.81;44.82
14204;BME280;7185;51.854;6.622;2023-04-09T09:31:24;102239.56;;;18.86;41.94
14204;BME280;7185;51.854;6.622;2023-04-09T09:33:56;102231.38;;;19.27;44.24
14204;BME280;7185;51.854;6.622;2023-04-09T09:36:33;102224.75;;;20.00;44.00
14204;BME280;7185;51.854;6.622;2023-04-09T09:39:05;102219.34;;;20.03;42.06
14204;BME280;7185;51.854;6.622;2023-04-09T09:41:39;102220.47;;;20.50;40.68
14204;BME280;7185;51.854;6.622;2023-04-09T09:44:12;102224.97;;;20.48;38.20
14204;BME280;7185;51.854;6.622;2023-04-09T09:47:02;102227.63;;;19.94;38.43
14204;BME280;7185;51.854;6.622;2023-04-09T09:49:34;102226.00;;;19.88;40.04
14204;BME280;7185;51.854;6.622;2023-04-09T09:52:08;102225.19;;;18.95;38.69
14204;BME280;7185;51.854;6.622;2023-04-09T09:54:41;102223.00;;;19.09;38.10
14204;BME280;7185;51.854;6.622;2023-04-09T09:57:15;102220.13;;;19.77;39.14
14204;BME280;7185;51.854;6.622;2023-04-09T09:59:52;102222.22;;;19.37;38.93
14204;BME280;7185;51.854;6.622;2023-04-09T10:02:26;102218.91;;;19.89;39.34
14204;BME280;7185;51.854;6.622;2023-04-09T10:05:00;102215.22;;;19.93;38.63
14204;BME280;7185;51.854;6.622;2023-04-09T10:07:33;102210.91;;;18.99;39.42
14204;BME280;7185;51.854;6.622;2023-04-09T10:10:07;102214.00;;;18.47;39.31
14204;BME280;7185;51.854;6.622;2023-04-09T10:12:39;102211.06;;;18.93;41.89
14204;BME280;7185;51.854;6.622;2023-04-09T10:15:12;102208.84;;;18.41;38.52
14204;BME280;7185;51.854;6.622;2023-04-09T10:17:45;102210.38;;;17.76;40.70
14204;BME280;7185;51.854;6.622;2023-04-09T10:20:21;102200.47;;;17.84;40.35
14204;BME280;7185;51.854;6.622;2023-04-09T10:22:59;102202.31;;;18.55;43.30
14204;BME280;7185;51.854;6.622;2023-04-09T10:25:33;102197.47;;;19.04;41.04
14204;BME280;7185;51.854;6.622;2023-04-09T10:28:14;102201.63;;;19.44;37.70
14204;BME280;7185;51.854;6.622;2023-04-09T10:30:46;102196.34;;;19.42;37.41
14204;BME280;7185;51.854;6.622;2023-04-09T10:33:21;102204.75;;;18.62;37.14
14204;BME280;7185;51.854;6.622;2023-04-09T10:35:59;102200.72;;;18.47;38.31
14204;BME280;7185;51.854;6.622;2023-04-09T10:38:37;102193.53;;;19.49;39.28
14204;BME280;7185;51.854;6.622;2023-04-09T10:41:14;102187.78;;;20.45;36.67
14204;BME280;7185;51.854;6.622;2023-04-09T10:43:46;102182.91;;;20.31;39.14
14204;BME280;7185;51.854;6.622;2023-04-09T10:46:26;102184.41;;;19.56;38.85
14204;BME280;7185;51.854;6.622;2023-04-09T10:49:08;102184.63;;;18.87;37.98
14204;BME280;7185;51.854;6.622;2023-04-09T10:51:40;102179.16;;;17.88;39.48
14204;BME280;7185;51.854;6.622;2023-04-09T10:54:40;102177.22;;;18.32;42.21
14204;BME280;7185;51.854;6.622;2023-04-09T10:57:19;102181.63;;;18.33;39.91
14204;BME280;7185;51.854;6.622;2023-04-09T10:59:53;102181.00;;;18.23;40.14
14204;BME280;7185;51.854;6.622;2023-04-09T11:05:33;102164.97;;;19.54;38.91
14204;BME280;7185;51.854;6.622;2023-04-09T11:08:08;102151.75;;;20.85;38.04
14204;BME280;7185;51.854;6.622;2023-04-09T11:10:43;102145.19;;;21.86;37.35
14204;BME280;7185;51.854;6.622;2023-04-09T11:13:16;102148.72;;;22.29;34.87
14204;BME280;7185;51.854;6.622;2023-04-09T11:15:49;102153.03;;;20.48;36.43
14204;BME280;7185;51.854;6.622;2023-04-09T11:18:22;102151.72;;;19.81;35.86
14204;BME280;7185;51.854;6.622;2023-04-09T11:20:54;102156.06;;;20.12;37.49
14204;BME280;7185;51.854;6.622;2023-04-09T11:23:27;102141.41;;;20.76;37.67
14204;BME280;7185;51.854;6.622;2023-04-09T11:26:00;102140.69;;;20.72;34.25
14204;BME280;7185;51.854;6.622;2023-04-09T11:28:33;102135.81;;;21.07;35.16
14204;BME280;7185;51.854;6.622;2023-04-09T11:31:05;102141.63;;;20.19;35.08
14204;BME280;7185;51.854;6.622;2023-04-09T11:33:37;102144.09;;;21.23;36.94
14204;BME280;7185;51.854;6.622;2023-04-09T11:36:08;102133.94;;;21.09;33.40
14204;BME280;7185;51.854;6.622;2023-04-09T11:38:40;102134.94;;;21.07;34.90
14204;BME280;7185;51.854;6.622;2023-04-09T11:41:13;102131.47;;;21.05;34.48
14204;BME280;7185;51.854;6.622;2023-04-09T11:43:50;102133.13;;;19.79;37.53
14204;BME280;7185;51.854;6.622;2023-04-09T11:46:22;102133.13;;;19.79;35.95
14204;BME280;7185;51.854;6.622;2023-04-09T11:48:55;102119.97;;;19.18;36.32
14204;BME280;7185;51.854;6.622;2023-04-09T11:51:27;102122.44;;;19.81;35.99
14204;BME280;7185;51.854;6.622;2023-04-09T11:54:00;102127.16;;;19.99;36.20
14204;BME280;7185;51.854;6.622;2023-04-09T11:56:34;102118.94;;;20.83;36.13
14204;BME280;7185;51.854;6.622;2023-04-09T11:59:06;102111.13;;;22.13;36.07
14204;BME280;7185;51.854;6.622;2023-04-09T12:01:38;102107.34;;;22.60;30.66
14204;BME280;7185;51.854;6.622;2023-04-09T12:04:18;102109.19;;;22.98;31.43
14204;BME280;7185;51.854;6.622;2023-04-09T12:06:50;102106.19;;;22.45;31.05
14204;BME280;7185;51.854;6.622;2023-04-09T12:09:26;102105.78;;;23.13;29.69
14204;BME280;7185;51.854;6.622;2023-04-09T12:11:59;102110.28;;;23.32;29.72
14204;BME280;7185;51.854;6.622;2023-04-09T12:14:31;102107.91;;;22.05;30.75
14204;BME280;7185;51.854;6.622;2023-04-09T12:17:03;102096.94;;;23.11;32.40
14204;BME280;7185;51.854;6.622;2023-04-09T12:19:35;102101.03;;;24.11;30.38
14204;BME280;7185;51.854;6.622;2023-04-09T12:22:06;102097.59;;;23.54;30.28
14204;BME280;7185;51.854;6.622;2023-04-09T12:24:38;102111.81;;;23.92;30.83
14204;BME280;7185;51.854;6.622;2023-04-09T12:27:11;102107.00;;;24.51;31.22
14204;BME280;7185;51.854;6.622;2023-04-09T12:29:43;102108.16;;;23.58;28.55
14204;BME280;7185;51.854;6.622;2023-04-09T12:32:14;102116.41;;;23.15;28.78
14204;BME280;7185;51.854;6.622;2023-04-09T12:34:46;102105.94;;;23.66;29.20
14204;BME280;7185;51.854;6.622;2023-04-09T12:37:19;102094.91;;;24.42;28.20
14204;BME280;7185;51.854;6.622;2023-04-09T12:39:51;102098.28;;;24.12;28.58
14204;BME280;7185;51.854;6.622;2023-04-09T12:42:24;102089.00;;;24.19;27.82
14204;BME280;7185;51.854;6.622;2023-04-09T12:44:56;102098.84;;;23.65;28.67
14204;BME280;7185;51.854;6.622;2023-04-09T12:47:27;102102.94;;;22.78;30.00
14204;BME280;7185;51.854;6.622;2023-04-09T12:49:59;102092.31;;;22.37;30.37
14204;BME280;7185;51.854;6.622;2023-04-09T12:52:30;102101.00;;;21.56;30.99
14204;BME280;7185;51.854;6.622;2023-04-09T12:55:03;102104.03;;;21.91;31.35
14204;BME280;7185;51.854;6.622;2023-04-09T12:57:37;102088.94;;;23.67;30.69
14204;BME280;7185;51.854;6.622;2023-04-09T13:00:11;102077.75;;;24.46;30.04
14204;BME280;7185;51.854;6.622;2023-04-09T13:02:43;102083.94;;;24.98;28.68
14204;BME280;7185;51.854;6.622;2023-04-09T13:05:14;102082.16;;;24.81;29.64
14204;BME280;7185;51.854;6.622;2023-04-09T13:07:46;102083.03;;;23.78;30.99
14204;BME280;7185;51.854;6.622;2023-04-09T13:10:17;102083.44;;;23.14;31.13
14204;BME280;7185;51.854;6.622;2023-04-09T13:12:50;102077.00;;;22.99;32.82
14204;BME280;7185;51.854;6.622;2023-04-09T13:15:22;102069.34;;;23.66;30.86
14204;BME280;7185;51.854;6.622;2023-04-09T13:17:54;102063.22;;;24.68;27.75
14204;BME280;7185;51.854;6.622;2023-04-09T13:20:26;102062.00;;;25.06;29.39
14204;BME280;7185;51.854;6.622;2023-04-09T13:22:58;102050.38;;;25.53;29.11
14204;BME280;7185;51.854;6.622;2023-04-09T13:25:29;102053.66;;;23.22;27.71
14204;BME280;7185;51.854;6.622;2023-04-09T13:28:02;102059.72;;;22.87;28.75
14204;BME280;7185;51.854;6.622;2023-04-09T13:30:34;102056.09;;;22.29;31.49
14204;BME280;7185;51.854;6.622;2023-04-09T13:33:05;102060.41;;;21.26;32.38
14204;BME280;7185;51.854;6.622;2023-04-09T13:35:37;102053.22;;;21.50;34.29